Time;durP1;ratioP1;P1;durP2;ratioP2;P2;SDS_P1;SDS_P2;PMS_P1;PMS_P2;Temp;Humidity;BMP_temperature;BMP_pressure;BME280_temperature;BME280_humidity;BME280_pressure;Samples;Min_cycle;Max_cycle;Signal;HPM_P1;HPM_P2
2020/12/05 00:01:58;;;;;;;156.37;43.83;;;;;;;-0.42;100.00;101035.77;1784828;79;21577;-55
2020/12/05 00:04:26;;;;;;;144.80;46.42;;;;;;;-0.41;100.00;101027.38;1784319;79;21104;-51
2020/12/05 00:09:09;;;;;;;127.12;42.35;;;;;;;-0.31;100.00;101018.70;1795076;77;22773;-53
2020/12/05 00:11:37;;;;;;;116.70;39.38;;;;;;;-0.36;100.00;101027.02;1754374;80;20994;-51
2020/12/05 00:14:05;;;;;;;104.23;36.63;;;;;;;-0.37;100.00;101027.89;1762514;81;21417;-52
2020/12/05 00:16:32;;;;;;;93.30;35.68;;;;;;;-0.39;100.00;101020.33;1761327;81;21029;-52
2020/12/05 00:19:01;;;;;;;109.72;38.58;;;;;;;-0.42;100.00;101018.98;1754266;80;21029;-52
2020/12/05 00:21:28;;;;;;;94.32;38.58;;;;;;;-0.43;100.00;101018.50;1763067;81;21040;-53
2020/12/05 00:23:56;;;;;;;83.90;34.63;;;;;;;-0.45;100.00;101025.55;1753602;80;20966;-51
2020/12/05 00:26:24;;;;;;;76.28;35.13;;;;;;;-0.46;100.00;101027.75;1733620;81;21953;-53
2020/12/05 00:28:52;;;;;;;110.32;39.00;;;;;;;-0.47;100.00;101025.53;1754174;80;21580;-52
2020/12/05 00:31:20;;;;;;;90.83;37.63;;;;;;;-0.46;100.00;101025.09;1762135;81;20994;-55
2020/12/05 00:33:50;;;;;;;85.95;34.80;;;;;;;-0.45;100.00;101028.20;1754370;80;21104;-52
2020/12/05 00:36:18;;;;;;;82.25;34.80;;;;;;;-0.46;100.00;101029.08;1762439;81;21005;-54
2020/12/05 00:38:46;;;;;;;83.15;35.90;;;;;;;-0.46;100.00;101025.09;1753698;80;21398;-54
2020/12/05 00:41:18;;;;;;;90.83;35.52;;;;;;;-0.45;100.00;101022.90;1755652;81;21017;-52
2020/12/05 00:43:46;;;;;;;99.13;38.05;;;;;;;-0.47;100.00;101032.59;1758238;81;21152;-54
2020/12/05 00:46:14;;;;;;;116.57;39.67;;;;;;;-0.46;100.00;101026.42;1752971;80;21180;-54
2020/12/05 00:48:42;;;;;;;90.22;35.55;;;;;;;-0.47;100.00;101035.25;1758578;81;21006;-52
2020/12/05 00:51:13;;;;;;;82.85;36.40;;;;;;;-0.46;100.00;101021.13;1753793;80;21438;-55
2020/12/05 00:53:42;;;;;;;79.75;35.00;;;;;;;-0.45;100.00;101022.90;1757554;81;21152;-50
2020/12/05 00:56:10;;;;;;;102.12;38.75;;;;;;;-0.45;100.00;101025.55;1753720;80;20998;-55
2020/12/05 00:58:38;;;;;;;89.00;32.45;;;;;;;-0.46;100.00;101027.75;1758205;81;20946;-57
2020/12/05 01:01:06;;;;;;;93.55;36.00;;;;;;;-0.44;100.00;101035.27;1753277;80;21104;-53
2020/12/05 01:03:34;;;;;;;97.45;37.10;;;;;;;-0.44;100.00;101037.92;1758493;81;21418;-55
2020/12/05 01:06:02;;;;;;;101.47;37.20;;;;;;;-0.42;100.00;101034.88;1754419;80;21458;-55
2020/12/05 01:08:29;;;;;;;109.85;38.10;;;;;;;-0.42;100.00;101030.91;1750090;80;21215;-57
2020/12/05 01:10:59;;;;;;;118.45;40.70;;;;;;;-0.43;100.00;101031.75;1773768;80;20994;-55
2020/12/05 01:13:28;;;;;;;87.82;34.70;;;;;;;-0.43;100.00;101026.01;1757364;81;20997;-52
2020/12/05 01:15:56;;;;;;;101.18;39.03;;;;;;;-0.44;100.00;101020.70;1749166;80;21382;-51
2020/12/05 01:18:24;;;;;;;110.20;41.02;;;;;;;-0.42;100.00;101022.95;1759055;81;21438;-52
2020/12/05 01:20:52;;;;;;;87.65;34.55;;;;;;;-0.43;100.00;101027.77;1747962;80;21176;-56
2020/12/05 01:23:20;;;;;;;88.58;33.33;;;;;;;-0.44;100.00;101032.63;1757069;81;21112;-52
2020/12/05 01:25:48;;;;;;;92.47;36.45;;;;;;;-0.44;100.00;101026.00;1746651;82;20962;-52
2020/12/05 01:28:15;;;;;;;93.92;37.95;;;;;;;-0.45;100.00;101030.84;1760579;81;21730;-52
2020/12/05 01:30:43;;;;;;;78.02;35.43;;;;;;;-0.43;100.00;101027.77;1747627;80;21598;-51
2020/12/05 01:33:11;;;;;;;84.40;35.83;;;;;;;-0.43;100.00;101029.09;1774383;80;21851;-51
2020/12/05 01:35:38;;;;;;;75.45;32.63;;;;;;;-0.42;100.00;101034.44;1751525;80;21121;-51
2020/12/05 01:38:06;;;;;;;104.17;39.00;;;;;;;-0.40;100.00;101023.86;1755577;81;20994;-51
2020/12/05 01:40:34;;;;;;;125.60;46.25;;;;;;;-0.40;100.00;101026.07;1746633;80;21374;-52
2020/12/05 01:43:02;;;;;;;124.35;43.23;;;;;;;-0.36;100.00;101027.02;1756445;81;21027;-57
2020/12/05 01:45:30;;;;;;;121.92;42.62;;;;;;;-0.36;100.00;101021.72;1747871;80;21691;-56
2020/12/05 01:47:57;;;;;;;123.07;46.55;;;;;;;-0.38;100.00;101022.11;1760129;81;21119;-50
2020/12/05 01:50:25;;;;;;;113.70;40.48;;;;;;;-0.39;100.00;101025.63;1777209;80;21152;-51
2020/12/05 01:52:55;;;;;;;113.85;40.38;;;;;;;-0.38;100.00;101033.59;1762364;81;21396;-53
2020/12/05 01:55:22;;;;;;;120.82;40.23;;;;;;;-0.36;100.00;101030.99;1697452;82;21641;-55
2020/12/05 01:57:50;;;;;;;132.35;43.92;;;;;;;-0.35;100.00;101033.66;1761760;81;21254;-50
2020/12/05 02:00:18;;;;;;;159.52;49.23;;;;;;;-0.33;100.00;101036.31;1762037;81;21152;-52
2020/12/05 02:02:46;;;;;;;153.45;47.88;;;;;;;-0.31;100.00;101031.95;1748030;80;21577;-54
2020/12/05 02:05:19;;;;;;;139.60;45.52;;;;;;;-0.28;100.00;101037.28;1760602;81;21373;-52
2020/12/05 02:08:07;;;;;;;157.37;49.95;;;;;;;-0.27;100.00;101025.80;1747602;80;21216;-50
2020/12/05 02:10:47;;;;;;;121.93;47.67;;;;;;;-0.17;100.00;101027.71;1790170;78;27887;-51
2020/12/05 02:13:36;;;;;;;110.37;41.50;;;;;;;-0.20;100.00;101030.34;1770642;79;20997;-51
2020/12/05 02:16:12;;;;;;;113.97;46.35;;;;;;;-0.15;100.00;101034.39;1841245;74;27515;-54
2020/12/05 02:18:39;;;;;;;121.80;40.58;;;;;;;-0.15;100.00;101036.60;1851980;75;20961;-55
2020/12/05 02:21:07;;;;;;;115.47;38.13;;;;;;;-0.12;100.00;101034.41;1813797;77;22499;-51
2020/12/05 02:23:35;;;;;;;102.05;38.80;;;;;;;-0.14;100.00;101033.07;1790740;77;21124;-53
2020/12/05 02:26:06;;;;;;;123.02;40.50;;;;;;;-0.17;100.00;101035.66;1781419;80;21461;-55
2020/12/05 02:28:35;;;;;;;118.02;41.48;;;;;;;-0.20;100.00;101040.95;1774769;80;21120;-52
2020/12/05 02:31:02;;;;;;;159.55;48.23;;;;;;;-0.21;100.00;101039.17;1781837;80;21446;-55
2020/12/05 02:33:30;;;;;;;172.45;51.50;;;;;;;-0.18;100.00;101047.59;1783692;80;21386;-51
2020/12/05 02:35:58;;;;;;;149.57;49.50;;;;;;;-0.16;100.00;101041.86;1781985;80;21037;-56
2020/12/05 02:38:36;;;;;;;133.72;47.70;;;;;;;-0.16;100.00;101050.73;1781294;80;21010;-54
2020/12/05 02:41:04;;;;;;;140.40;45.60;;;;;;;-0.18;100.00;101047.14;1750780;80;20990;-51
2020/12/05 02:43:33;;;;;;;111.92;42.43;;;;;;;-0.19;100.00;101043.16;1779855;80;21037;-53
2020/12/05 02:46:01;;;;;;;116.65;43.73;;;;;;;-0.20;100.00;101048.89;1727570;80;21678;-54
2020/12/05 02:48:29;;;;;;;170.82;51.83;;;;;;;-0.19;100.00;101045.38;1782828;80;21164;-55
2020/12/05 02:50:57;;;;;;;156.22;52.85;;;;;;;-0.18;100.00;101048.47;1782444;80;21139;-55
2020/12/05 02:53:24;;;;;;;165.30;51.88;;;;;;;-0.19;100.00;101045.38;1782404;80;21533;-53
2020/12/05 02:55:52;;;;;;;124.07;45.65;;;;;;;-0.19;100.00;101042.72;1811160;78;20974;-52
2020/12/05 02:58:20;;;;;;;115.12;44.48;;;;;;;-0.20;100.00;101051.55;1812068;79;21337;-52
2020/12/05 03:00:48;;;;;;;122.05;44.55;;;;;;;-0.20;100.00;101056.84;1781816;78;20971;-56
2020/12/05 03:03:16;;;;;;;116.73;44.03;;;;;;;-0.20;100.00;101052.88;1778457;80;21153;-54
2020/12/05 03:05:43;;;;;;;118.33;45.03;;;;;;;-0.20;100.00;101046.25;1779874;78;22129;-55
2020/12/05 03:08:11;;;;;;;102.45;42.55;;;;;;;-0.17;100.00;101044.95;1778692;80;21132;-52
2020/12/05 03:10:39;;;;;;;87.50;39.73;;;;;;;-0.14;100.00;101050.74;1805992;79;21362;-50
2020/12/05 03:13:07;;;;;;;108.65;43.33;;;;;;;-0.13;100.00;101045.45;1779835;80;21168;-49
2020/12/05 03:15:35;;;;;;;169.32;55.65;;;;;;;-0.13;100.00;101049.42;1775201;80;20974;-55
2020/12/05 03:18:03;;;;;;;126.40;46.85;;;;;;;-0.13;100.00;101054.73;1766527;81;21124;-51
2020/12/05 03:20:31;;;;;;;115.67;41.05;;;;;;;-0.15;100.00;101047.20;1794452;79;21120;-51
2020/12/05 03:22:58;;;;;;;137.45;44.50;;;;;;;-0.14;100.00;101054.28;1767037;81;21399;-51
2020/12/05 03:25:26;;;;;;;114.32;44.10;;;;;;;-0.16;100.00;101058.69;1793886;79;21624;-51
2020/12/05 03:27:55;;;;;;;116.73;44.73;;;;;;;-0.16;100.00;101062.66;1766583;81;21005;-52
2020/12/05 03:30:23;;;;;;;146.82;47.90;;;;;;;-0.15;100.00;101060.46;1793212;79;20978;-51
2020/12/05 03:32:51;;;;;;;131.00;45.15;;;;;;;-0.13;100.00;101064.01;1794765;79;21129;-52
2020/12/05 03:35:18;;;;;;;143.17;47.88;;;;;;;-0.13;100.00;101064.01;1776961;79;21587;-51
2020/12/05 03:37:46;;;;;;;147.32;46.65;;;;;;;-0.12;100.00;101067.11;1840008;77;21025;-51
2020/12/05 03:40:14;;;;;;;132.18;47.98;;;;;;;-0.12;100.00;101049.88;1839821;77;21096;-51
2020/12/05 03:42:42;;;;;;;145.28;47.33;;;;;;;-0.12;100.00;101046.34;1766339;79;21119;-50
2020/12/05 03:45:10;;;;;;;106.55;41.60;;;;;;;-0.10;100.00;101047.27;1794684;79;21533;-52
2020/12/05 03:47:38;;;;;;;133.25;43.85;;;;;;;-0.11;100.00;101055.63;1766151;81;21342;-50
2020/12/05 03:50:06;;;;;;;115.80;43.00;;;;;;;-0.10;100.00;101058.77;1792805;79;21056;-54
2020/12/05 03:52:34;;;;;;;102.97;40.85;;;;;;;-0.12;100.00;101052.53;1795159;79;21171;-51
2020/12/05 03:55:02;;;;;;;106.50;40.50;;;;;;;-0.12;100.00;101057.83;1795029;79;20982;-50
2020/12/05 03:57:29;;;;;;;108.17;38.15;;;;;;;-0.14;100.00;101054.72;1766806;81;21596;-54
2020/12/05 03:59:57;;;;;;;89.67;36.40;;;;;;;-0.13;100.00;101054.73;1796509;79;21390;-51
2020/12/05 04:02:25;;;;;;;112.47;39.27;;;;;;;-0.16;100.00;101056.03;1796634;79;21017;-50
2020/12/05 04:04:52;;;;;;;90.70;40.03;;;;;;;-0.16;100.00;101049.41;1766680;79;21631;-51
2020/12/05 04:07:21;;;;;;;90.00;35.98;;;;;;;-0.17;100.00;101055.55;1795664;79;21080;-49
2020/12/05 04:09:50;;;;;;;82.55;34.73;;;;;;;-0.16;100.00;101056.03;1795066;79;21164;-53
2020/12/05 04:12:18;;;;;;;101.58;41.05;;;;;;;-0.16;100.00;101065.31;1795174;79;21384;-56
2020/12/05 04:14:46;;;;;;;102.97;38.65;;;;;;;-0.13;100.00;101071.08;1798031;78;21215;-51
2020/12/05 04:17:13;;;;;;;103.42;36.83;;;;;;;-0.12;100.00;101068.44;1800866;79;21115;-53
2020/12/05 04:19:41;;;;;;;126.80;41.40;;;;;;;-0.13;100.00;101069.31;1815912;78;21113;-56
2020/12/05 04:22:09;;;;;;;89.77;37.20;;;;;;;-0.13;100.00;101066.66;1797169;79;21572;-50
2020/12/05 04:24:36;;;;;;;87.82;35.05;;;;;;;-0.14;100.00;101070.19;1796948;79;22049;-54
2020/12/05 04:27:04;;;;;;;81.75;33.42;;;;;;;-0.17;100.00;101070.13;1784326;80;21589;-52
2020/12/05 04:29:32;;;;;;;84.22;36.58;;;;;;;-0.19;100.00;101075.86;1798650;79;21159;-55
2020/12/05 04:32:00;;;;;;;122.75;41.13;;;;;;;-0.18;100.00;101078.95;1814088;78;21628;-51
2020/12/05 04:34:27;;;;;;;102.00;37.40;;;;;;;-0.22;100.00;101073.15;1800731;79;20942;-50
2020/12/05 04:36:56;;;;;;;80.62;35.78;;;;;;;-0.24;100.00;101070.92;1798864;79;21631;-50
2020/12/05 04:39:23;;;;;;;84.22;35.33;;;;;;;-0.24;100.00;101068.27;1791824;79;20989;-52
2020/12/05 04:41:51;;;;;;;68.40;32.08;;;;;;;-0.25;100.00;101063.84;1800476;79;21710;-54
2020/12/05 04:44:19;;;;;;;92.92;36.95;;;;;;;-0.26;100.00;101062.06;1799452;79;20958;-55
2020/12/05 04:46:46;;;;;;;104.75;40.23;;;;;;;-0.26;100.00;101064.72;1773267;79;21139;-55
2020/12/05 04:49:14;;;;;;;88.95;37.45;;;;;;;-0.28;100.00;101060.70;1773158;79;21344;-54
2020/12/05 04:51:44;;;;;;;69.58;31.70;;;;;;;-0.25;100.00;101063.84;1796853;79;21013;-50
2020/12/05 04:54:12;;;;;;;83.03;34.67;;;;;;;-0.25;100.00;101058.55;1800739;79;21642;-55
2020/12/05 04:56:40;;;;;;;106.78;40.03;;;;;;;-0.27;100.00;101054.95;1797518;79;21129;-54
2020/12/05 04:59:11;;;;;;;84.72;34.80;;;;;;;-0.27;100.00;101065.56;1800551;79;20969;-56
2020/12/05 05:01:39;;;;;;;120.60;41.73;;;;;;;-0.25;100.00;101061.19;1784118;80;21564;-55
2020/12/05 05:04:06;;;;;;;94.60;37.73;;;;;;;-0.26;100.00;101062.06;1798884;79;21523;-51
2020/12/05 05:06:34;;;;;;;85.62;35.88;;;;;;;-0.28;100.00;101073.06;1801743;79;21203;-56
2020/12/05 05:09:02;;;;;;;110.70;37.98;;;;;;;-0.27;100.00;101070.86;1784969;80;20985;-51
2020/12/05 05:11:30;;;;;;;117.53;42.65;;;;;;;-0.28;100.00;101063.78;1773786;79;20949;-53
2020/12/05 05:16:43;;;;;;;117.13;39.83;;;;;;;-0.22;100.00;101085.08;1820447;76;22737;-51
2020/12/05 05:19:22;;;;;;;118.60;43.30;;;;;;;-0.24;100.00;101083.29;1785776;79;21112;-50
2020/12/05 05:21:51;;;;;;;95.90;37.55;;;;;;;-0.18;100.00;101084.27;1782835;79;21029;-51
2020/12/05 05:24:20;;;;;;;120.00;42.95;;;;;;;-0.18;100.00;101085.59;1781042;78;21005;-50
2020/12/05 05:27:05;;;;;;;135.22;43.85;;;;;;;-0.18;100.00;101078.95;1781277;79;21135;-50
2020/12/05 05:29:39;;;;;;;156.52;46.58;;;;;;;-0.19;100.00;101091.77;1781091;79;20962;-56
2020/12/05 05:32:19;;;;;;;101.60;38.98;;;;;;;-0.18;100.00;101093.54;1781806;78;21512;-56
2020/12/05 05:34:46;;;;;;;169.13;48.80;;;;;;;-0.20;100.00;101097.94;1782421;79;21360;-50
2020/12/05 05:37:16;;;;;;;144.25;39.78;;;;;;;-0.23;100.00;101085.95;1782419;79;20995;-50
2020/12/05 05:39:50;;;;;;;121.67;39.00;;;;;;;-0.23;100.00;101087.28;1780721;79;21057;-53
2020/12/05 05:42:34;;;;;;;116.93;42.88;;;;;;;-0.25;100.00;101087.70;1781499;79;20990;-50
2020/12/05 05:45:24;;;;;;;108.55;38.30;;;;;;;-0.23;100.00;101087.72;1781430;78;21053;-52
2020/12/05 05:48:03;;;;;;;165.77;50.35;;;;;;;-0.17;100.00;101075.44;1809444;78;22734;-51
2020/12/05 05:50:33;;;;;;;148.70;45.00;;;;;;;-0.20;100.00;101080.71;1775267;80;20942;-52
2020/12/05 05:53:06;;;;;;;146.50;46.85;;;;;;;-0.20;100.00;101088.66;1774252;80;21392;-53
2020/12/05 05:55:50;;;;;;;115.75;39.53;;;;;;;-0.24;100.00;101080.20;1771395;80;21010;-52
2020/12/05 05:58:20;;;;;;;137.52;40.23;;;;;;;-0.25;100.00;101093.00;1772080;79;21474;-50
2020/12/05 06:00:49;;;;;;;95.72;36.40;;;;;;;-0.27;100.00;101096.97;1773842;79;21588;-52
2020/12/05 06:03:25;;;;;;;91.22;35.75;;;;;;;-0.26;100.00;101096.53;1776279;79;20990;-55
2020/12/05 06:05:58;;;;;;;76.95;33.00;;;;;;;-0.23;100.00;101099.64;1777875;79;22076;-52
2020/12/05 06:08:30;;;;;;;82.00;32.88;;;;;;;-0.20;100.00;101101.92;1776641;80;20990;-54
2020/12/05 06:11:11;;;;;;;84.90;35.20;;;;;;;-0.23;100.00;101087.28;1777362;79;21038;-54
2020/12/05 06:13:39;;;;;;;95.75;36.68;;;;;;;-0.24;100.00;101097.43;1778939;80;21121;-51
2020/12/05 06:16:07;;;;;;;138.80;43.98;;;;;;;-0.25;100.00;101091.67;1753740;80;20978;-52
2020/12/05 06:18:35;;;;;;;120.55;36.38;;;;;;;-0.25;100.00;101093.00;1777164;80;21382;-52
2020/12/05 06:21:02;;;;;;;161.80;44.45;;;;;;;-0.25;100.00;101094.33;1777194;79;21224;-54
2020/12/05 06:23:41;;;;;;;154.57;46.30;;;;;;;-0.24;100.00;101092.13;1777415;79;21057;-52
2020/12/05 06:26:11;;;;;;;123.30;39.40;;;;;;;-0.20;100.00;101108.55;1775655;80;21112;-56
2020/12/05 06:28:39;;;;;;;138.10;43.38;;;;;;;-0.22;100.00;101100.98;1755423;80;21101;-55
2020/12/05 06:31:07;;;;;;;165.97;49.53;;;;;;;-0.24;100.00;101105.38;1704270;79;21503;-51
2020/12/05 06:33:45;;;;;;;139.60;46.73;;;;;;;-0.26;100.00;101112.44;1775540;80;20993;-55
2020/12/05 06:36:34;;;;;;;134.95;43.80;;;;;;;-0.24;100.00;101112.45;1777736;80;21068;-53
2020/12/05 06:39:16;;;;;;;161.70;49.80;;;;;;;-0.24;100.00;101106.71;1776376;80;21014;-51
2020/12/05 06:41:53;;;;;;;166.00;47.25;;;;;;;-0.18;100.00;101108.13;1816273;75;22313;-51
2020/12/05 06:44:35;;;;;;;135.78;43.83;;;;;;;-0.23;100.00;101107.16;1758212;79;21001;-55
2020/12/05 06:47:24;;;;;;;154.20;48.13;;;;;;;-0.15;100.00;101109.51;1821647;77;22701;-55
2020/12/05 06:49:54;;;;;;;163.85;50.43;;;;;;;-0.19;100.00;101118.28;1762001;80;21460;-56
2020/12/05 06:52:30;;;;;;;120.05;45.05;;;;;;;-0.16;100.00;101119.66;1757246;80;21384;-51
2020/12/05 06:55:09;;;;;;;106.47;39.80;;;;;;;-0.17;100.00;101131.11;1766582;80;21156;-51
2020/12/05 06:57:38;;;;;;;89.42;39.73;;;;;;;-0.19;100.00;101127.55;1766381;80;20997;-52
2020/12/05 07:00:21;;;;;;;105.63;37.30;;;;;;;-0.21;100.00;101126.66;1727841;81;21065;-56
2020/12/05 07:03:06;;;;;;;151.72;46.25;;;;;;;-0.22;100.00;101122.19;1762910;80;21136;-55
2020/12/05 07:05:46;;;;;;;119.67;42.85;;;;;;;-0.22;100.00;101131.47;1766514;80;21203;-53
2020/12/05 07:08:34;;;;;;;121.65;42.60;;;;;;;-0.18;100.00;101139.94;1761482;80;21053;-51
2020/12/05 07:11:14;;;;;;;123.95;44.83;;;;;;;-0.18;100.00;101133.31;1734482;81;21080;-55
2020/12/05 07:13:49;;;;;;;140.57;49.10;;;;;;;-0.15;100.00;101134.70;1761340;80;20997;-58
2020/12/05 07:16:27;;;;;;;124.07;46.92;;;;;;;-0.11;100.00;101139.16;1817601;76;22840;-55
2020/12/05 07:18:58;;;;;;;118.37;45.28;;;;;;;-0.18;100.00;101145.23;1778838;79;20965;-56
2020/12/05 07:21:33;;;;;;;128.60;48.20;;;;;;;-0.13;100.00;101146.20;1815432;78;22860;-51
2020/12/05 07:24:01;;;;;;;140.88;48.95;;;;;;;-0.17;100.00;101154.08;1824596;77;20944;-51
2020/12/05 07:26:29;;;;;;;131.12;45.73;;;;;;;-0.14;100.00;101155.03;1750334;80;21213;-50
2020/12/05 07:28:57;;;;;;;133.52;49.27;;;;;;;-0.14;100.00;101160.34;1720948;80;21544;-53
2020/12/05 07:31:24;;;;;;;122.70;44.40;;;;;;;-0.13;100.00;101162.11;1748710;80;21057;-54
2020/12/05 07:33:53;;;;;;;168.87;55.70;;;;;;;-0.09;100.00;101161.30;1748078;80;20998;-51
2020/12/05 07:36:21;;;;;;;136.68;45.03;;;;;;;-0.08;100.00;101171.03;1726675;80;21461;-54
2020/12/05 07:38:49;;;;;;;112.45;44.00;;;;;;;-0.04;100.00;101158.73;1751959;79;21391;-55
2020/12/05 07:41:19;;;;;;;133.82;47.45;;;;;;;-0.06;100.00;101158.68;1751223;79;21069;-50
2020/12/05 07:43:47;;;;;;;170.55;53.98;;;;;;;-0.07;100.00;101155.58;1751763;79;21026;-54
2020/12/05 07:46:16;;;;;;;133.95;44.80;;;;;;;-0.05;100.00;101151.20;1749973;79;21095;-51
2020/12/05 07:48:44;;;;;;;112.08;41.13;;;;;;;-0.03;100.00;101152.11;1753155;79;21010;-52
2020/12/05 07:51:13;;;;;;;97.88;36.95;;;;;;;-0.05;100.00;101159.16;1751463;79;21378;-55
2020/12/05 07:53:41;;;;;;;111.97;41.35;;;;;;;-0.08;100.00;101163.08;1753605;79;21617;-53
2020/12/05 07:56:19;;;;;;;162.70;47.48;;;;;;;-0.10;100.00;101169.24;1753747;79;21123;-57
2020/12/05 07:58:55;;;;;;;129.18;43.90;;;;;;;-0.08;100.00;101173.69;1747713;79;21226;-51
2020/12/05 08:01:39;;;;;;;160.50;54.83;;;;;;;-0.04;100.00;101172.87;1749326;80;21576;-51
2020/12/05 08:04:36;;;;;;;153.35;49.23;;;;;;;-0.02;100.00;101181.73;1750859;80;21172;-53
2020/12/05 08:07:15;;;;;;;99.75;39.65;;;;;;;0.01;100.00;101174.71;1729488;80;21180;-54
2020/12/05 08:09:43;;;;;;;74.67;33.48;;;;;;;-0.01;100.00;101191.47;1792515;78;21196;-54
2020/12/05 08:12:13;;;;;;;85.97;33.98;;;;;;;-0.01;100.00;101198.09;1736220;79;21136;-51
2020/12/05 08:14:44;;;;;;;100.10;37.40;;;;;;;-0.03;100.00;101199.84;1794585;78;21102;-56
2020/12/05 08:17:12;;;;;;;121.53;43.00;;;;;;;0.03;100.00;101199.48;1753973;80;21372;-52
2020/12/05 08:19:42;;;;;;;178.57;50.17;;;;;;;0.07;100.00;101198.67;1746842;80;21173;-54
2020/12/05 08:22:10;;;;;;;131.87;42.75;;;;;;;0.08;100.00;101208.41;1725902;80;21184;-54
2020/12/05 08:24:50;;;;;;;144.13;46.85;;;;;;;0.10;100.00;101206.66;1712816;80;21160;-51
2020/12/05 08:27:18;;;;;;;98.00;39.10;;;;;;;0.07;100.00;101196.91;1748871;79;21014;-57
2020/12/05 08:29:48;;;;;;;176.20;48.63;;;;;;;0.07;100.00;101203.98;1786759;77;21366;-51
2020/12/05 08:32:19;;;;;;;144.25;47.48;;;;;;;0.04;100.00;101201.27;1785903;79;21620;-51
2020/12/05 08:34:47;;;;;;;144.65;47.08;;;;;;;0.01;100.00;101206.53;1787272;77;21148;-56
2020/12/05 08:37:25;;;;;;;206.53;60.48;;;;;;;0.01;100.00;101214.49;1786829;77;20981;-51
2020/12/05 08:39:54;;;;;;;176.07;54.18;;;;;;;-0.03;100.00;101214.86;1785979;77;21227;-54
2020/12/05 08:42:22;;;;;;;192.45;61.20;;;;;;;-0.02;100.00;101206.92;1786976;77;21541;-54
2020/12/05 08:44:50;;;;;;;159.27;54.23;;;;;;;-0.03;100.00;101213.54;1753136;79;21022;-53
2020/12/05 08:47:17;;;;;;;140.95;50.55;;;;;;;-0.03;100.00;101210.45;1757794;79;21130;-52
2020/12/05 08:49:48;;;;;;;217.22;60.55;;;;;;;-0.04;100.00;101215.30;1790339;77;21560;-48
2020/12/05 08:52:16;;;;;;;215.75;59.03;;;;;;;-0.02;100.00;101218.86;1753549;79;21140;-48
2020/12/05 08:54:50;;;;;;;189.65;57.67;;;;;;;0.02;100.00;101218.92;1787760;77;22079;-50
2020/12/05 08:57:18;;;;;;;168.05;55.60;;;;;;;0.03;100.00;101212.31;1749826;79;21691;-51
2020/12/05 08:59:47;;;;;;;157.90;51.73;;;;;;;0.04;100.00;101214.52;1748443;79;21191;-51
2020/12/05 09:02:15;;;;;;;129.42;49.00;;;;;;;0.03;100.00;101206.11;1748351;80;21339;-48
2020/12/05 09:04:43;;;;;;;135.57;49.50;;;;;;;0.01;100.00;101214.49;1785478;77;21565;-51
2020/12/05 09:07:20;;;;;;;138.30;46.55;;;;;;;-0.01;100.00;101212.68;1785770;77;22297;-50
2020/12/05 09:09:48;;;;;;;139.90;47.05;;;;;;;0.01;100.00;101217.14;1751222;79;21157;-48
2020/12/05 09:12:18;;;;;;;123.45;42.93;;;;;;;0.02;100.00;101215.83;1748493;80;21053;-53
2020/12/05 09:14:47;;;;;;;106.12;44.98;;;;;;;0.01;100.00;101217.14;1752266;80;21104;-47
2020/12/05 09:17:34;;;;;;;127.20;47.65;;;;;;;0.02;100.00;101205.66;1785780;77;20998;-52
2020/12/05 09:20:19;;;;;;;127.20;45.12;;;;;;;0.04;100.00;101206.56;1749558;79;22057;-50
2020/12/05 09:22:55;;;;;;;119.25;45.43;;;;;;;0.07;100.00;101203.98;1742546;80;21172;-53
2020/12/05 09:25:35;;;;;;;134.22;47.83;;;;;;;0.04;100.00;101194.63;1753797;81;21146;-54
2020/12/05 09:28:12;;;;;;;150.72;46.02;;;;;;;0.02;100.00;101202.58;1819775;78;21541;-47
2020/12/05 09:30:40;;;;;;;136.37;49.75;;;;;;;0.02;100.00;101200.36;1819553;77;20991;-46
2020/12/05 09:33:11;;;;;;;141.25;46.42;;;;;;;0.02;100.00;101195.05;1824717;77;21438;-47
2020/12/05 09:35:39;;;;;;;164.70;51.75;;;;;;;-0.02;100.00;101202.95;1824549;78;21685;-47
2020/12/05 09:38:07;;;;;;;134.63;45.67;;;;;;;-0.03;100.00;101203.83;1741374;81;21136;-54
2020/12/05 09:40:35;;;;;;;143.35;46.83;;;;;;;-0.04;100.00;101198.06;1740826;81;21149;-51
2020/12/05 09:43:03;;;;;;;123.85;45.63;;;;;;;-0.07;100.00;101195.34;1740101;79;21707;-51
2020/12/05 09:45:33;;;;;;;98.00;40.50;;;;;;;-0.08;100.00;101197.55;1753577;81;21245;-53
2020/12/05 09:48:00;;;;;;;99.22;40.28;;;;;;;-0.10;100.00;101193.99;1741259;81;21112;-54
2020/12/05 09:50:28;;;;;;;109.17;43.35;;;;;;;-0.11;100.00;101195.27;1759417;81;21156;-53
2020/12/05 09:52:57;;;;;;;132.40;48.25;;;;;;;-0.11;100.00;101199.25;1743076;81;21566;-52
2020/12/05 09:55:25;;;;;;;153.35;50.52;;;;;;;-0.13;100.00;101191.28;1757583;81;21473;-48
2020/12/05 09:57:53;;;;;;;111.95;43.42;;;;;;;-0.11;100.00;101191.30;1743331;81;21677;-56
2020/12/05 10:00:22;;;;;;;102.82;44.55;;;;;;;-0.09;100.00;101190.47;1754249;81;21125;-53
2020/12/05 10:02:50;;;;;;;122.67;46.30;;;;;;;-0.10;100.00;101196.65;1746835;81;21160;-49
2020/12/05 10:05:19;;;;;;;109.15;42.85;;;;;;;-0.09;100.00;101190.47;1751208;81;21149;-49
2020/12/05 10:07:47;;;;;;;95.70;42.73;;;;;;;-0.10;100.00;101186.04;1758585;81;21125;-52
2020/12/05 10:10:15;;;;;;;97.08;42.13;;;;;;;-0.11;100.00;101196.59;1743786;80;21578;-52
2020/12/05 10:12:45;;;;;;;89.22;39.05;;;;;;;-0.11;100.00;101205.44;1751486;81;21563;-51
2020/12/05 10:15:14;;;;;;;91.97;39.53;;;;;;;-0.15;100.00;101194.35;1817374;77;20930;-63
2020/12/05 10:17:43;;;;;;;89.87;37.40;;;;;;;-0.17;100.00;101206.67;1741169;80;21033;-54
2020/12/05 10:20:10;;;;;;;106.40;48.70;;;;;;;-0.14;100.00;101208.06;1742727;80;20986;-53
2020/12/05 10:22:38;;;;;;;92.55;37.58;;;;;;;-0.14;100.00;101202.76;1786805;79;21457;-50
2020/12/05 10:25:07;;;;;;;87.02;39.40;;;;;;;-0.17;100.00;101200.05;1822625;77;21017;-52
2020/12/05 10:27:35;;;;;;;88.65;38.08;;;;;;;-0.20;100.00;101200.01;1826800;78;20994;-54
2020/12/05 10:30:03;;;;;;;80.00;36.45;;;;;;;-0.24;100.00;101203.47;1824704;78;21018;-50
2020/12/05 10:32:30;;;;;;;84.62;40.25;;;;;;;-0.23;100.00;101203.92;1743375;81;21645;-51
2020/12/05 10:34:58;;;;;;;85.60;40.95;;;;;;;-0.27;100.00;101208.70;1742870;80;21209;-52
2020/12/05 10:37:26;;;;;;;121.02;43.23;;;;;;;-0.29;100.00;101210.45;1768385;80;21180;-52
2020/12/05 10:39:53;;;;;;;127.97;43.83;;;;;;;-0.30;100.00;101208.67;1771660;80;20966;-51
2020/12/05 10:42:21;;;;;;;108.85;42.67;;;;;;;-0.28;100.00;101217.53;1774400;80;21112;-50
2020/12/05 10:44:51;;;;;;;139.95;48.30;;;;;;;-0.28;100.00;101209.58;1740679;80;21139;-51
2020/12/05 10:47:19;;;;;;;122.95;46.92;;;;;;;-0.27;100.00;101215.33;1760727;81;22255;-51
2020/12/05 10:49:47;;;;;;;123.15;45.23;;;;;;;-0.25;100.00;101211.41;1819433;78;21196;-51
2020/12/05 10:52:15;;;;;;;105.67;40.90;;;;;;;-0.27;100.00;101216.66;1815926;76;20986;-50
2020/12/05 10:54:43;;;;;;;87.88;39.80;;;;;;;-0.29;100.00;101209.13;1828679;78;21546;-51
2020/12/05 10:57:10;;;;;;;81.05;37.70;;;;;;;-0.30;100.00;101216.63;1826687;78;21124;-50
2020/12/05 10:59:38;;;;;;;93.60;37.80;;;;;;;-0.29;100.00;101218.40;1815541;78;21356;-50
2020/12/05 11:02:06;;;;;;;81.15;37.17;;;;;;;-0.30;100.00;101216.63;1816100;77;21190;-50
2020/12/05 11:04:33;;;;;;;76.77;35.92;;;;;;;-0.31;100.00;101222.80;1740951;81;21168;-54
2020/12/05 11:07:01;;;;;;;73.10;34.27;;;;;;;-0.34;100.00;101225.38;1757457;81;21592;-54
2020/12/05 11:09:30;;;;;;;95.92;38.08;;;;;;;-0.36;100.00;101220.06;1753990;81;21149;-54
2020/12/05 11:11:58;;;;;;;81.15;35.33;;;;;;;-0.36;100.00;101223.14;1822912;77;21140;-58
2020/12/05 11:14:26;;;;;;;107.80;39.20;;;;;;;-0.36;100.00;101231.09;1824246;78;20994;-55
2020/12/05 11:16:55;;;;;;;98.78;39.58;;;;;;;-0.35;100.00;101240.83;1740068;81;21173;-54